sensor_id;sensor_type;location;lat;lon;timestamp;pressure;altitude;pressure_sealevel;temperature;humidity
21449;BME280;10885;52.830;13.788;2023-04-20T05:26:38;101728.44;;;6.63;93.10
21449;BME280;10885;52.830;13.788;2023-04-20T05:31:59;101741.41;;;6.75;91.70
21449;BME280;10885;52.830;13.788;2023-04-20T05:37:21;101739.66;;;6.84;90.60
21449;BME280;10885;52.830;13.788;2023-04-20T05:42:41;101735.56;;;6.95;90.08
21449;BME280;10885;52.830;13.788;2023-04-20T05:48:03;101735.91;;;7.08;89.37
21449;BME280;10885;52.830;13.788;2023-04-20T05:53:24;101735.69;;;7.15;88.98
21449;BME280;10885;52.830;13.788;2023-04-20T05:58:47;101736.16;;;7.30;88.70
21449;BME280;10885;52.830;13.788;2023-04-20T06:04:08;101739.25;;;7.36;88.26
21449;BME280;10885;52.830;13.788;2023-04-20T06:09:29;101737.97;;;7.42;87.65
21449;BME280;10885;52.830;13.788;2023-04-20T06:14:51;101753.53;;;7.64;87.70
21449;BME280;10885;52.830;13.788;2023-04-20T06:20:12;101759.09;;;7.79;87.15
21449;BME280;10885;52.830;13.788;2023-04-20T06:25:37;101762.03;;;7.83;86.31
21449;BME280;10885;52.830;13.788;2023-04-20T06:30:58;101775.59;;;7.92;85.98
21449;BME280;10885;52.830;13.788;2023-04-20T06:36:20;101785.22;;;8.05;85.77
21449;BME280;10885;52.830;13.788;2023-04-20T06:41:41;101786.06;;;7.95;84.99
21449;BME280;10885;52.830;13.788;2023-04-20T06:47:01;101785.81;;;7.92;85.46
21449;BME280;10885;52.830;13.788;2023-04-20T06:52:23;101784.00;;;7.91;84.99
21449;BME280;10885;52.830;13.788;2023-04-20T06:57:44;101792.69;;;7.93;85.21
21449;BME280;10885;52.830;13.788;2023-04-20T07:03:05;101797.03;;;7.84;85.43
21449;BME280;10885;52.830;13.788;2023-04-20T07:08:26;101791.50;;;7.80;86.78
21449;BME280;10885;52.830;13.788;2023-04-20T07:13:48;101797.63;;;7.82;87.01
21449;BME280;10885;52.830;13.788;2023-04-20T07:19:09;101788.84;;;7.78;87.58
21449;BME280;10885;52.830;13.788;2023-04-20T07:24:30;101779.13;;;7.74;88.04
21449;BME280;10885;52.830;13.788;2023-04-20T07:29:51;101782.41;;;7.73;88.41
21449;BME280;10885;52.830;13.788;2023-04-20T07:35:12;101779.16;;;7.84;88.35
21449;BME280;10885;52.830;13.788;2023-04-20T07:40:33;101794.66;;;7.96;88.12
21449;BME280;10885;52.830;13.788;2023-04-20T07:45:54;101796.34;;;8.06;87.51
21449;BME280;10885;52.830;13.788;2023-04-20T07:51:15;101805.44;;;8.23;87.60
21449;BME280;10885;52.830;13.788;2023-04-20T07:56:36;101803.81;;;8.33;86.90
21449;BME280;10885;52.830;13.788;2023-04-20T08:02:01;101804.00;;;8.45;85.68
21449;BME280;10885;52.830;13.788;2023-04-20T08:07:23;101801.06;;;8.61;85.45
21449;BME280;10885;52.830;13.788;2023-04-20T08:12:44;101806.75;;;8.78;85.07
21449;BME280;10885;52.830;13.788;2023-04-20T08:18:07;101810.03;;;8.87;84.17
21449;BME280;10885;52.830;13.788;2023-04-20T08:23:28;101813.13;;;9.03;83.20
21449;BME280;10885;52.830;13.788;2023-04-20T08:28:50;101814.66;;;9.22;82.84
21449;BME280;10885;52.830;13.788;2023-04-20T08:34:10;101816.66;;;9.46;83.24
21449;BME280;10885;52.830;13.788;2023-04-20T08:39:31;101810.75;;;9.90;81.34
21449;BME280;10885;52.830;13.788;2023-04-20T08:44:53;101809.09;;;10.23;80.15
21449;BME280;10885;52.830;13.788;2023-04-20T08:50:15;101800.22;;;10.51;78.81
21449;BME280;10885;52.830;13.788;2023-04-20T08:55:36;101796.00;;;10.98;76.37
21449;BME280;10885;52.830;13.788;2023-04-20T09:00:57;101804.44;;;11.30;75.32
21449;BME280;10885;52.830;13.788;2023-04-20T09:06:20;101798.06;;;11.84;73.49
21449;BME280;10885;52.830;13.788;2023-04-20T09:11:43;101802.00;;;11.91;72.66
21449;BME280;10885;52.830;13.788;2023-04-20T09:17:04;101812.47;;;11.82;72.42
21449;BME280;10885;52.830;13.788;2023-04-20T09:22:35;101813.69;;;11.75;72.07
21449;BME280;10885;52.830;13.788;2023-04-20T09:27:58;101812.25;;;11.67;72.84
21449;BME280;10885;52.830;13.788;2023-04-20T09:33:26;101804.78;;;11.94;73.59
21449;BME280;10885;52.830;13.788;2023-04-20T09:39:00;101799.50;;;12.16;73.50
21449;BME280;10885;52.830;13.788;2023-04-20T09:44:23;101784.06;;;12.41;71.41
21449;BME280;10885;52.830;13.788;2023-04-20T09:49:45;101801.50;;;12.70;71.38
21449;BME280;10885;52.830;13.788;2023-04-20T09:55:09;101800.25;;;12.77;70.08
21449;BME280;10885;52.830;13.788;2023-04-20T10:00:30;101795.53;;;12.83;70.69
21449;BME280;10885;52.830;13.788;2023-04-20T10:05:51;101801.22;;;12.79;70.93
21449;BME280;10885;52.830;13.788;2023-04-20T10:17:12;101783.75;;;12.87;69.51
21449;BME280;10885;52.830;13.788;2023-04-20T10:22:32;101782.94;;;12.49;70.79
21449;BME280;10885;52.830;13.788;2023-04-20T10:27:59;101768.16;;;13.10;71.90
21449;BME280;10885;52.830;13.788;2023-04-20T10:33:21;101765.53;;;14.17;69.61
21449;BME280;10885;52.830;13.788;2023-04-20T10:38:43;101754.47;;;14.76;66.44
21449;BME280;10885;52.830;13.788;2023-04-20T10:44:07;101748.78;;;17.22;59.85
21449;BME280;10885;52.830;13.788;2023-04-20T10:49:29;101750.00;;;19.23;51.59
21449;BME280;10885;52.830;13.788;2023-04-20T10:54:51;101751.06;;;20.41;47.83
21449;BME280;10885;52.830;13.788;2023-04-20T11:00:17;101757.72;;;21.36;47.37
21449;BME280;10885;52.830;13.788;2023-04-20T11:05:40;101744.78;;;21.66;42.58
21449;BME280;10885;52.830;13.788;2023-04-20T11:11:00;101740.34;;;20.58;46.20
21449;BME280;10885;52.830;13.788;2023-04-20T11:16:22;101732.69;;;21.41;45.59
21449;BME280;10885;52.830;13.788;2023-04-20T11:21:45;101725.56;;;22.23;43.95
21449;BME280;10885;52.830;13.788;2023-04-20T11:27:18;101725.19;;;24.28;40.48
21449;BME280;10885;52.830;13.788;2023-04-20T11:32:39;101726.91;;;24.73;35.18
21449;BME280;10885;52.830;13.788;2023-04-20T11:38:00;101723.75;;;25.49;34.12
21449;BME280;10885;52.830;13.788;2023-04-20T11:43:22;101715.38;;;26.55;31.98
21449;BME280;10885;52.830;13.788;2023-04-20T11:48:43;101712.50;;;27.29;32.29
21449;BME280;10885;52.830;13.788;2023-04-20T11:54:04;101717.66;;;27.19;31.56
21449;BME280;10885;52.830;13.788;2023-04-20T11:59:25;101713.34;;;27.25;32.15
21449;BME280;10885;52.830;13.788;2023-04-20T12:04:46;101705.28;;;27.03;29.37
21449;BME280;10885;52.830;13.788;2023-04-20T12:10:08;101697.88;;;24.62;33.22
21449;BME280;10885;52.830;13.788;2023-04-20T12:15:29;101703.81;;;25.63;33.25
21449;BME280;10885;52.830;13.788;2023-04-20T12:20:51;101704.22;;;26.78;30.03
21449;BME280;10885;52.830;13.788;2023-04-20T12:26:11;101696.75;;;27.40;30.51
21449;BME280;10885;52.830;13.788;2023-04-20T12:31:32;101684.16;;;26.95;29.35
21449;BME280;10885;52.830;13.788;2023-04-20T12:36:55;101681.22;;;25.76;32.05
21449;BME280;10885;52.830;13.788;2023-04-20T12:42:16;101665.06;;;24.86;32.53
21449;BME280;10885;52.830;13.788;2023-04-20T12:47:37;101668.47;;;23.05;35.69
21449;BME280;10885;52.830;13.788;2023-04-20T12:52:58;101655.84;;;21.58;39.13
21449;BME280;10885;52.830;13.788;2023-04-20T12:58:19;101646.41;;;20.77;39.46
21449;BME280;10885;52.830;13.788;2023-04-20T13:03:40;101635.06;;;20.00;42.11
21449;BME280;10885;52.830;13.788;2023-04-20T13:09:02;101636.28;;;20.10;42.23
21449;BME280;10885;52.830;13.788;2023-04-20T13:14:24;101632.47;;;20.01;42.19
21449;BME280;10885;52.830;13.788;2023-04-20T13:19:46;101624.94;;;19.16;43.63
21449;BME280;10885;52.830;13.788;2023-04-20T13:25:08;101627.13;;;18.42;45.16
21449;BME280;10885;52.830;13.788;2023-04-20T13:30:30;101632.00;;;18.13;46.95
21449;BME280;10885;52.830;13.788;2023-04-20T13:35:51;101629.75;;;18.63;46.98
21449;BME280;10885;52.830;13.788;2023-04-20T13:41:12;101622.72;;;19.02;46.45
21449;BME280;10885;52.830;13.788;2023-04-20T13:46:34;101617.28;;;19.19;45.44
21449;BME280;10885;52.830;13.788;2023-04-20T13:51:55;101616.13;;;18.68;46.22
21449;BME280;10885;52.830;13.788;2023-04-20T13:57:16;101616.31;;;18.31;46.63
21449;BME280;10885;52.830;13.788;2023-04-20T14:02:38;101613.03;;;17.95;48.92
21449;BME280;10885;52.830;13.788;2023-04-20T14:07:59;101612.63;;;18.05;48.71
21449;BME280;10885;52.830;13.788;2023-04-20T14:13:22;101607.94;;;17.78;47.71
21449;BME280;10885;52.830;13.788;2023-04-20T14:18:44;101604.00;;;17.67;48.37
21449;BME280;10885;52.830;13.788;2023-04-20T14:24:06;101601.16;;;17.61;48.26
21449;BME280;10885;52.830;13.788;2023-04-20T14:29:27;101603.84;;;17.44;48.40
21449;BME280;10885;52.830;13.788;2023-04-20T14:34:48;101589.94;;;17.42;49.15
21449;BME280;10885;52.830;13.788;2023-04-20T14:40:09;101578.91;;;17.85;49.21
21449;BME280;10885;52.830;13.788;2023-04-20T14:45:31;101581.19;;;18.81;46.20
21449;BME280;10885;52.830;13.788;2023-04-20T14:50:52;101589.22;;;19.33;43.63
21449;BME280;10885;52.830;13.788;2023-04-20T14:56:13;101578.22;;;19.17;42.40
21449;BME280;10885;52.830;13.788;2023-04-20T15:01:34;101578.81;;;18.87;43.58
21449;BME280;10885;52.830;13.788;2023-04-20T15:06:56;101581.13;;;18.59;44.85
21449;BME280;10885;52.830;13.788;2023-04-20T15:12:17;101583.22;;;18.25;45.06
21449;BME280;10885;52.830;13.788;2023-04-20T15:17:38;101579.44;;;18.38;44.61
21449;BME280;10885;52.830;13.788;2023-04-20T15:22:59;101576.91;;;19.04;43.89
21449;BME280;10885;52.830;13.788;2023-04-20T15:28:20;101581.06;;;19.46;43.09
21449;BME280;10885;52.830;13.788;2023-04-20T15:33:42;101570.41;;;19.86;40.83
21449;BME280;10885;52.830;13.788;2023-04-20T15:39:04;101571.22;;;19.85;40.18
21449;BME280;10885;52.830;13.788;2023-04-20T15:44:25;101581.91;;;18.79;41.47
21449;BME280;10885;52.830;13.788;2023-04-20T15:49:47;101567.34;;;18.39;42.85
21449;BME280;10885;52.830;13.788;2023-04-20T15:55:09;101571.66;;;18.38;43.45
21449;BME280;10885;52.830;13.788;2023-04-20T16:00:31;101565.84;;;18.45;42.39
21449;BME280;10885;52.830;13.788;2023-04-20T16:05:52;101565.47;;;18.57;42.92
21449;BME280;10885;52.830;13.788;2023-04-20T16:11:13;101573.97;;;18.74;42.72
21449;BME280;10885;52.830;13.788;2023-04-20T16:16:35;101578.06;;;18.69;42.59
21449;BME280;10885;52.830;13.788;2023-04-20T16:21:56;101572.63;;;18.63;41.90
21449;BME280;10885;52.830;13.788;2023-04-20T16:27:17;101571.34;;;18.74;42.14
21449;BME280;10885;52.830;13.788;2023-04-20T16:32:38;101568.50;;;18.89;42.08
21449;BME280;10885;52.830;13.788;2023-04-20T16:38:00;101568.38;;;18.65;42.70
21449;BME280;10885;52.830;13.788;2023-04-20T16:43:22;101575.91;;;18.38;42.93
21449;BME280;10885;52.830;13.788;2023-04-20T16:48:42;101577.47;;;18.33;43.76
21449;BME280;10885;52.830;13.788;2023-04-20T16:54:03;101578.28;;;18.32;43.74
21449;BME280;10885;52.830;13.788;2023-04-20T16:59:25;101580.25;;;18.37;43.81
21449;BME280;10885;52.830;13.788;2023-04-20T17:04:46;101574.25;;;18.38;44.69
21449;BME280;10885;52.830;13.788;2023-04-20T17:10:07;101575.50;;;18.27;44.86
21449;BME280;10885;52.830;13.788;2023-04-20T17:15:28;101582.44;;;18.07;44.78
21449;BME280;10885;52.830;13.788;2023-04-20T17:20:49;101587.09;;;17.75;45.64
21449;BME280;10885;52.830;13.788;2023-04-20T17:26:12;101588.56;;;17.50;46.24
21449;BME280;10885;52.830;13.788;2023-04-20T17:31:33;101588.13;;;17.22;46.80
21449;BME280;10885;52.830;13.788;2023-04-20T17:36:54;101591.56;;;16.85;48.11
21449;BME280;10885;52.830;13.788;2023-04-20T17:42:15;101593.91;;;16.62;48.88
21449;BME280;10885;52.830;13.788;2023-04-20T17:47:37;101593.50;;;16.37;49.90
21449;BME280;10885;52.830;13.788;2023-04-20T17:52:58;101603.69;;;16.16;50.34
21449;BME280;10885;52.830;13.788;2023-04-20T17:58:23;101601.13;;;15.83;51.40
21449;BME280;10885;52.830;13.788;2023-04-20T18:03:44;101599.81;;;15.58;52.28
21449;BME280;10885;52.830;13.788;2023-04-20T18:09:07;101607.78;;;15.30;53.09
21449;BME280;10885;52.830;13.788;2023-04-20T18:14:29;101613.38;;;15.06;53.85
21449;BME280;10885;52.830;13.788;2023-04-20T18:19:50;101613.47;;;14.93;54.49
21449;BME280;10885;52.830;13.788;2023-04-20T18:25:11;101628.28;;;14.81;54.98
21449;BME280;10885;52.830;13.788;2023-04-20T18:30:32;101623.75;;;14.62;55.54
21449;BME280;10885;52.830;13.788;2023-04-20T18:35:52;101632.88;;;14.42;56.38
21449;BME280;10885;52.830;13.788;2023-04-20T18:41:14;101632.94;;;14.13;57.46
21449;BME280;10885;52.830;13.788;2023-04-20T18:46:37;101627.56;;;13.96;58.13
21449;BME280;10885;52.830;13.788;2023-04-20T18:51:58;101633.28;;;13.77;59.04
21449;BME280;10885;52.830;13.788;2023-04-20T18:57:19;101626.25;;;13.59;59.84
21449;BME280;10885;52.830;13.788;2023-04-20T19:02:46;101623.22;;;13.38;60.76
21449;BME280;10885;52.830;13.788;2023-04-20T19:08:07;101622.91;;;13.20;61.51
21449;BME280;10885;52.830;13.788;2023-04-20T19:13:28;101623.91;;;13.09;61.37
21449;BME280;10885;52.830;13.788;2023-04-20T19:18:49;101632.44;;;12.94;62.47
21449;BME280;10885;52.830;13.788;2023-04-20T19:24:11;101616.50;;;12.73;63.43
21449;BME280;10885;52.830;13.788;2023-04-20T19:29:31;101624.97;;;12.59;63.97
21449;BME280;10885;52.830;13.788;2023-04-20T19:34:55;101622.78;;;12.39;64.86
21449;BME280;10885;52.830;13.788;2023-04-20T19:40:18;101640.97;;;12.28;64.91
21449;BME280;10885;52.830;13.788;2023-04-20T19:45:42;101631.22;;;12.11;65.68
21449;BME280;10885;52.830;13.788;2023-04-20T19:51:03;101638.38;;;11.90;66.84
21449;BME280;10885;52.830;13.788;2023-04-20T19:56:26;101632.91;;;11.73;67.85
21449;BME280;10885;52.830;13.788;2023-04-20T20:01:47;101634.84;;;11.64;68.79
21449;BME280;10885;52.830;13.788;2023-04-20T20:07:09;101637.56;;;11.54;68.94
21449;BME280;10885;52.830;13.788;2023-04-20T20:12:30;101637.78;;;11.45;69.42
21449;BME280;10885;52.830;13.788;2023-04-20T20:17:51;101640.59;;;11.37;69.56
21449;BME280;10885;52.830;13.788;2023-04-20T20:23:15;101642.88;;;11.20;71.02
21449;BME280;10885;52.830;13.788;2023-04-20T20:28:36;101643.09;;;11.11;71.66
21449;BME280;10885;52.830;13.788;2023-04-20T20:33:57;101644.75;;;10.99;71.86
21449;BME280;10885;52.830;13.788;2023-04-20T20:39:18;101637.31;;;10.90;71.80
21449;BME280;10885;52.830;13.788;2023-04-20T20:44:40;101648.88;;;10.85;72.15
21449;BME280;10885;52.830;13.788;2023-04-20T20:50:02;101648.88;;;10.73;72.26
21449;BME280;10885;52.830;13.788;2023-04-20T20:55:23;101641.28;;;10.63;73.26
21449;BME280;10885;52.830;13.788;2023-04-20T21:00:45;101642.63;;;10.58;73.43
21449;BME280;10885;52.830;13.788;2023-04-20T21:06:07;101649.97;;;10.53;73.33
21449;BME280;10885;52.830;13.788;2023-04-20T21:11:28;101648.97;;;10.51;73.46
21449;BME280;10885;52.830;13.788;2023-04-20T21:16:48;101647.84;;;10.48;73.58
21449;BME280;10885;52.830;13.788;2023-04-20T21:22:10;101641.38;;;10.41;73.50
